Ana Sayfa
METAR-TAF:

METAR-TAF

Havaalanları :

Lazkiye Havaalanı

Lazkiye, Suriye

Enlem: 35-32N, Boylam: 035-46E, yükseklik: 7 m

Güncel hava durumu gözlemi

Rapor saat 04:00 UTC de 56 dakika önce yapıldı.
Rüzgar doğu/güneydoğudan 4 kt
Sıcaklık 25°C
Nem 69%
Basınç 1005 hPa
Görüş mesafesi 10 km veya daha fazla
2600 ft yükseklikte az bulutlu
3000 ft yükseklikte parçalı bulutlu

METAR: OSLK 150400Z 12004KT 9999 FEW026 SCT030 25/19 Q1005

Saat: 07:56 (04:56 UTC)

Tahmin

Rapor saat 16:00 UTC de 12 saat ve 56 dakika önce yapıldı.
Ayın 14'si saat 18 UTC'den ayın 15'si saat 18 UTC'ye kadar geçerli Tahmin
Rüzgar güney/güneydoğudan 10 kt
Görüş mesafesi 10 km veya daha fazla
3000 ft yükseklikte parçalı bulutlu
Geçici
ayın 15'si saat 06 UTC'den ayın 15'si saat 18 UTC'ye kadar
Rüzgar batı/güneybatıdan 12 kt

TAF: OSLK 141600Z 1418/1518 15010KT 9999 SCT030 TEMPO 1506/1518 24012KT

4.000'den fazla havaalanı için hava durumu gözlemleri ve tahminleri (METAR ve TAF raporları).

Kullanılabilir istasyonlar harita üzerinde sarı ve kırmızı noktalarla gösterilir.

İstasyonun adını görmek için fareyi noktanın üzerinde gezdirin.

Sonrasında hava gözlem ve tahminlerini görmek için tıklayın.

Haritayı değiştirmek için: yaklaştırmak için siyah artı işaretli yeşil düğmeye ve uzaklaştırmak için de eksi işaretli düğmeye hızla tıklayın; bitişik haritalar için yeşil okları kullanın.


METAR-TAF: